EDSBEDDS

Guest
Details From EDSB - Karlsruhe Baden Baden
To EDDS - Stuttgart
Flight Number -
Tags Routegen Generated
Created
Modified
Stats Distance 48 nm / 88 km
Max Altitude 100 ft / 30 m
Waypoints 5
Social Downloads 5
Likes 0
Share VATSIM

Download

Looking for another format? Having issues loading an existing format? Contact us
Advertisement - Login to hide

Notes

Departing runway 3 EDSB. Arriving runway 7 EDDS.

Route

EDSB +48.85_+008.15 +48.76_+008.62 +48.67_+009.09 EDDS

ID Type Via Altitude Latitude Longitude Leg Dist Tot Dist Heading (true) Name
O EDSB APT - 0 ft / 0 m 48.79068˚ 8.09135˚ - 0 nm - -
+48.85_+008.15 LATLON - 100 ft / 30 m 48.85223˚ 8.14914˚ 4 nm 4 nm 32° / 32° -
+48.76_+008.62 LATLON - 100 ft / 30 m 48.75898˚ 8.62198˚ 19 nm 23 nm 106° / 107° -
+48.67_+009.09 LATLON - 100 ft / 30 m 48.66572˚ 9.09481˚ 19 nm 43 nm 106° / 107° -
O EDDS APT - 0 ft / 0 m 48.68573˚ 9.20013˚ 4 nm 47 nm 74° / 74° -

Altitude Profile

Advertisement - Login to hide

EDSB

Details ICAO EDSB (FKB)
Name Karlsruhe Baden Baden
Region Germany - Civil
Timezone Europe/Berlin (UTC+1.0)
Stats Elevation 408 ft / 124 m (AMSL)
Location 48.779257° 8.080642°
Runways 1
Magnetic Variation 2.222° E

METAR

EDSB 110220Z AUTO 21008KT 9999 // OVC036/// 08/06 Q0986

Decode

TAF

TAF EDSB 102334Z 1023/1118 CNL

Decode

Departure Runways

ID Width Length Bearing (true) Bearing (mag) Surface Threshold Offset Overrun Length
03 148 ft / 45 m 9,799 ft / 2,987 m 31.69° 29.47° Asphalt 830 ft / 253 m 115 ft / 35 m
21 148 ft / 45 m 9,799 ft / 2,987 m 211.70° 209.48° Asphalt 830 ft / 253 m 115 ft / 35 m

EDDS

Details ICAO EDDS (STR)
Name Stuttgart
Region Germany - Civil
Timezone Europe/Berlin (UTC+1.0)
Stats Elevation 1,273 ft / 388 m (AMSL)
Location 48.689876° 9.221962°
Runways 1
Magnetic Variation 2.522° E

METAR

EDDS 110220Z 13003KT 100V160 CAVOK 04/02 Q0986 R25/650293

Decode

TAF

TAF TAF EDDS 102300Z 1100/1124 20010KT 9999 BKN045 BECMG 1105/1107 12005KT BECMG 1117/1120 20008KT

Decode

Destination Runways

ID Width Length Bearing (true) Bearing (mag) Surface Threshold Offset Overrun Length
07 148 ft / 45 m 10,950 ft / 3,337 m 73.96° 71.44° Concrete 981 ft / 299 m 157 ft / 48 m
25 148 ft / 45 m 10,950 ft / 3,337 m 253.99° 251.47° Concrete 0 ft / 0 m 157 ft / 48 m

Approach Navaids

Runway Type Ident Frequency Range Bearing (true) Bearing (mag) Slope Elevation
07 Localiser ISTE 110.90 MHz 18 nm / 33 km 73.99° 71.47° - 1,181 ft / 360 m (AMSL)
07 Glidescope ISTE 110.90 MHz 10 nm / 19 km 73.97° 71.45° 3.00° 1,267 ft / 386 m (AMSL)
07 DME ISTE 115.45 MHz 18 nm / 33 km - - - 1,332 ft / 406 m (AMSL)
25 Localiser ISTW 109.90 MHz 18 nm / 33 km 253.95° 251.42° - 1,267 ft / 386 m (AMSL)
25 Glidescope ISTW 109.90 MHz 10 nm / 19 km 253.97° 251.45° 3.00° 1,181 ft / 360 m (AMSL)
25 DME ISTW 115.45 MHz 18 nm / 33 km - - - 1,332 ft / 406 m (AMSL)

Popular Alternatives